Tiempo atmosférico en la estación meteorológica de Bunyola, Sierra de Alfabia, Illes Balears (1030 m.)



Fecha
DESCASC
Temp. máxima en grados centígrados (hora)
DESCASC
Temp. mínima en grados centígrados (hora)
DESCASC
Temp. media en grados centígrados
DESCASC
Racha de viento máxima en m/sg (hora)
DESCASC
Velocidad máxima media en intervalos de 10 minutos(hora)
DESCASC
Precipitaciones diarias en mm
DESCASC
Precipitaciones de 00:00 a 06:00 en mm
DESCASC
Precipitaciones de 06:00 a 12:00 en mm
DESCASC
Precipitaciones de 12:00 a 18:00 en mm
DESCASC
Precipitaciones de 18:00 a 24:00 en mm
DESCASC

Gráficas

Temp. máximas Temp. mínimas Temp. medias Precipitaciones Rachas de viento máximas Velocidades máximas media en intervalos de 10 minutos

Datos horarios

Fecha y hora oficial Temperatura (ºC) Velocidad del viento (km/h) Dirección del viento Racha (km/h) Dirección de racha Precipitación (mm) Presión (hPa) Tendencia (hPa) Humedad (%)
2020-07-11 23:00:00 20.4 15 Norte 19 Norte 0 -- -- 78
2020-07-11 22:00:00 20.2 14 Norte 18 Norte 0 -- -- 82
2020-07-11 21:00:00 21.5 14 Norte 21 Norte 0 -- -- 77
2020-07-11 20:00:00 22.3 17 Noroeste 22 Norte 0 -- -- 77
2020-07-11 19:00:00 24.6 16 Noroeste 21 Noroeste 0 -- -- 70
2020-07-11 18:00:00 25.3 4 Nordeste 17 Norte 0 -- -- 66
2020-07-11 17:00:00 25.2 7 Nordeste 24 Este 0 -- -- 63
2020-07-11 16:00:00 25.3 10 Este 30 Nordeste 0 -- -- 62
2020-07-11 15:00:00 25.5 13 Este 28 Sudeste 0 -- -- 62
2020-07-11 14:00:00 24.4 18 Este 31 Este 0 -- -- 66
2020-07-11 13:00:00 24.2 22 Este 38 Este 0 -- -- 66
2020-07-11 12:00:00 23.3 24 Este 37 Este 0 -- -- 68
2020-07-11 11:00:00 23.2 20 Este 26 Este 0 -- -- 68
2020-07-11 10:00:00 22.9 15 Este 30 Este 0 -- -- 63
2020-07-11 09:00:00 22.3 23 Sudeste 32 Este 0 -- -- 52
2020-07-11 08:00:00 21.9 24 Sudeste 31 Sudeste 0 -- -- 45
2020-07-11 07:00:00 21.5 14 Este 21 Sudeste 0 -- -- 41
2020-07-11 06:00:00 20.5 7 Nordeste 17 Nordeste 0 -- -- 52
2020-07-11 05:00:00 20.6 14 Norte 18 Norte 0 -- -- 52
2020-07-11 04:00:00 20.3 10 Nordeste 13 Nordeste 0 -- -- 69
2020-07-11 03:00:00 21.2 9 Nordeste 14 Este 0 -- -- 60
2020-07-11 02:00:00 22.2 12 Este 15 Sudeste 0 -- -- 37
2020-07-11 01:00:00 22.1 13 Sudeste 19 Sudeste 0 -- -- 41
2020-07-11 00:00:00 22 17 Sudeste 19 Sudeste 0 -- -- 52
2020-07-10 23:00:00 20.7 14 Sudeste 18 Sudeste 0 -- -- 67
2020-07-10 22:00:00 20.8 14 Sudeste 17 Sudeste 0 -- -- 73
2020-07-10 21:00:00 22.3 13 Sudeste 20 Sudeste 0 -- -- 64
2020-07-10 20:00:00 24.5 13 Sudeste 26 Sudeste 0 -- -- 55
2020-07-10 19:00:00 28 9 Sur 20 Este 0 -- -- 50
2020-07-10 18:00:00 27.9 12 Sudeste 23 Sudeste 0 -- -- 61
2020-07-10 17:00:00 26.6 7 Sur 22 Sur 0 -- -- 62
2020-07-10 16:00:00 25.9 17 Sur 33 Sur 0 -- -- 52
2020-07-10 15:00:00 28.7 8 Sur 24 Sudeste 0 -- -- 30
2020-07-10 14:00:00 26.8 13 Sudeste 38 Sur 0 -- -- 33
2020-07-10 13:00:00 21 28 Sur 50 Sur 0 -- -- 75
2020-07-10 12:00:00 21.9 31 Sur 53 Sur 0 -- -- 62
2020-07-10 11:00:00 25.7 19 Sudeste 36 Sur 0 -- -- 38
2020-07-10 10:00:00 27.8 21 Sur 42 Sudeste 0 -- -- 29
2020-07-10 09:00:00 24.4 27 Sudeste 45 Sudeste 0 -- -- 32
2020-07-10 08:00:00 23.7 24 Sur 41 Sur 0 -- -- 30
2020-07-10 07:00:00 24 30 Sudeste 38 Sudeste 0 -- -- 34
2020-07-10 06:00:00 22.7 12 Sudeste 63 Sudeste 0 -- -- 44
2020-07-10 05:00:00 23.8 38 Sur 54 Sur 0 -- -- 33
2020-07-10 04:00:00 19.1 33 Sur 46 Sur 0 -- -- 65
2020-07-10 03:00:00 19.2 17 Sur 24 Sur 0 -- -- 61
2020-07-10 02:00:00 19.8 11 Sur 25 Sudeste 0 -- -- 47
2020-07-10 01:00:00 21.4 18 Sudeste 32 Sudeste 0 -- -- 23
2020-07-10 00:00:00 20.4 19 Sudeste 35 Sudeste 0 -- -- 41
2020-07-09 23:00:00 20.1 28 Sudeste 36 Sudeste 0 -- -- 53
2020-07-09 22:00:00 22.1 20 Sudeste 28 Sudeste 0 -- -- 46
2020-07-09 21:00:00 22.7 5 Este 31 Sur 0 -- -- 56
2020-07-09 20:00:00 27.9 21 Sudeste 31 Este 0 -- -- 25
2020-07-09 19:00:00 27.9 7 Noroeste 20 Sudeste 0 -- -- 34
2020-07-09 18:00:00 24.3 19 Sudeste 35 Sudeste 0 -- -- 70
2020-07-09 17:00:00 24.1 28 Sudeste 43 Sudeste 0 -- -- 71
2020-07-09 16:00:00 21.7 24 Sur 46 Sur 0 -- -- 87
2020-07-09 15:00:00 25.4 31 Sudeste 42 Sudeste 0 -- -- 53
2020-07-09 14:00:00 23.4 16 Noroeste 29 Noroeste 0 -- -- 75
2020-07-09 13:00:00 23.4 17 Noroeste 30 Noroeste 0 -- -- 70
2020-07-09 12:00:00 26.3 9 Noroeste 32 Este 0 -- -- 42
2020-07-09 11:00:00 23.1 24 Sudeste 31 Sudeste 0 -- -- 54
2020-07-09 10:00:00 23.9 13 Sudeste 21 Noroeste 0 -- -- 52
2020-07-09 09:00:00 21.1 18 Noroeste 26 Norte 0 -- -- 62
2020-07-09 08:00:00 20.4 14 Norte 20 Noroeste 0 -- -- 58
2020-07-09 07:00:00 21.5 4 Sudoeste 9 Sur 0 -- -- 49
2020-07-09 06:00:00 21.4 8 Sudeste 14 Sur 0 -- -- 46
2020-07-09 05:00:00 22.5 0 Calma 5 Sur 0 -- -- 39
2020-07-09 04:00:00 23.3 5 Norte 13 Noroeste 0 -- -- 35
2020-07-09 03:00:00 23 8 Este 22 Sudeste 0 -- -- 34
2020-07-09 02:00:00 22.4 20 Sudeste 24 Sudeste 0 -- -- 41
2020-07-09 01:00:00 19.9 8 Nordeste 13 Nordeste 0 -- -- 69
2020-07-09 00:00:00 19.5 8 Nordeste 22 Noroeste 0 -- -- 63
2020-07-08 23:00:00 18.4 18 Noroeste 46 Noroeste 0 -- -- 72
2020-07-08 22:00:00 17.3 30 Noroeste 39 Norte 0 -- -- 97
2020-07-08 21:00:00 19 7 Nordeste 13 Nordeste 0 -- -- 82
2020-07-08 20:00:00 21 6 Sur 24 Sur 0 -- -- 77
2020-07-08 19:00:00 23.9 18 Sur 38 Sudeste 0 -- -- 62
2020-07-08 18:00:00 24 28 Sudeste 39 Sur 0 -- -- 63
2020-07-08 17:00:00 24.6 13 Sur 24 Sur 0 -- -- 61
2020-07-08 16:00:00 23.2 5 Norte 23 Sudoeste 0 -- -- 60
2020-07-08 15:00:00 25.6 10 Sur 24 Sur 0 -- -- 52
2020-07-08 14:00:00 26.5 14 Sur 25 Oeste 0 -- -- 34
2020-07-08 13:00:00 25.5 9 Sur 21 Sur 0 -- -- 34
2020-07-08 12:00:00 25.1 6 Sur 17 Sudoeste 0 -- -- 35
2020-07-08 11:00:00 24.3 3 Sudoeste 13 Sudeste 0 -- -- 39
2020-07-08 10:00:00 22.7 8 Sudeste 16 Sudeste 0 -- -- 33
2020-07-08 09:00:00 21.3 13 Este 22 Sudeste 0 -- -- 35
2020-07-08 08:00:00 20.8 13 Este 17 Sudeste 0 -- -- 29
2020-07-08 07:00:00 19 11 Sudeste 18 Sudeste 0 -- -- 34
2020-07-08 06:00:00 19.1 12 Este 15 Sudeste 0 -- -- 35
2020-07-08 05:00:00 19.2 6 Este 9 Norte 0 -- -- 35
2020-07-08 04:00:00 19.7 8 Norte 10 Norte 0 -- -- 32
2020-07-08 03:00:00 19.2 7 Norte 12 Norte 0 -- -- 43
2020-07-08 02:00:00 18.7 10 Noroeste 19 Noroeste 0 -- -- 51
2020-07-08 01:00:00 17.7 18 Noroeste 22 Norte 0 -- -- 92
2020-07-08 00:00:00 18.2 12 Noroeste 14 Noroeste 0 -- -- 86
2020-07-07 23:00:00 18.1 8 Noroeste 11 Norte 0 -- -- 81
2020-07-07 22:00:00 17.9 4 Sudoeste 15 Sudeste 0 -- -- 99
2020-07-07 21:00:00 20 5 Sudeste 14 Sur 0 -- -- 95
2020-07-07 20:00:00 22.5 4 Norte 14 Norte 0 -- -- 68
2020-07-07 19:00:00 23.7 8 Norte 17 Norte 0 -- -- 78
2020-07-07 18:00:00 23.6 9 Norte 16 Nordeste 0 -- -- 83
2020-07-07 17:00:00 25.3 0 Calma 44 Sur 0 -- -- 66
2020-07-07 16:00:00 23.2 2 Noroeste 19 Sudoeste 0 -- -- 81
2020-07-07 15:00:00 22.6 3 Norte 15 Noroeste 0 -- -- 79
2020-07-07 14:00:00 21.1 9 Norte 20 Norte 0 -- -- 85
2020-07-07 13:00:00 20.9 5 Norte 21 Nordeste 0 -- -- 84
2020-07-07 12:00:00 23.1 6 Norte 17 Norte 0 -- -- 64
2020-07-07 11:00:00 21.1 8 Norte 20 Noroeste 0 -- -- 70
2020-07-07 10:00:00 22.3 10 Noroeste 23 Noroeste 0 -- -- 61
2020-07-07 09:00:00 21.3 8 Noroeste 18 Noroeste 0 -- -- 65
2020-07-07 08:00:00 19.9 5 Oeste 12 Noroeste 0 -- -- 64
2020-07-07 07:00:00 17.5 7 Oeste 16 Noroeste 0 -- -- 75
2020-07-07 06:00:00 17.6 9 Oeste 17 Oeste 0 -- -- 68
2020-07-07 05:00:00 18.1 10 Oeste 23 Oeste 0 -- -- 66
2020-07-07 04:00:00 18.4 15 Noroeste 26 Noroeste 0 -- -- 62
2020-07-07 03:00:00 19.1 17 Oeste 26 Noroeste 0 -- -- 59
2020-07-07 02:00:00 19.5 11 Oeste 26 Oeste 0 -- -- 55
2020-07-07 01:00:00 20.3 11 Oeste 18 Oeste 0 -- -- 51
2020-07-07 00:00:00 20.4 7 Oeste 14 Oeste 0 -- -- 49
2020-07-06 23:00:00 20.5 6 Noroeste 9 Noroeste 0 -- -- 56
2020-07-06 22:00:00 21.3 6 Noroeste 14 Oeste 0 -- -- 51
2020-07-06 21:00:00 21.6 10 Oeste 15 Oeste 0 -- -- 53
2020-07-06 20:00:00 24.3 4 Sudoeste 17 Noroeste 0 -- -- 56
2020-07-06 19:00:00 26.7 5 Noroeste 15 Norte 0 -- -- 51
2020-07-06 18:00:00 23.6 9 Norte 20 Nordeste 0 -- -- 66
2020-07-06 17:00:00 25.6 7 Nordeste 22 Sur 0 -- -- 54
2020-07-06 16:00:00 26.4 2 Sur 25 Sudoeste 0 -- -- 47
2020-07-06 15:00:00 26.7 3 Este 19 Sudeste 0 -- -- 42
2020-07-06 14:00:00 26.8 3 Oeste 22 Sudoeste 0 -- -- 45
2020-07-06 13:00:00 27.7 2 Sur 33 Sudoeste 0 -- -- 36
2020-07-06 12:00:00 26.2 3 Noroeste 12 Sur 0 -- -- 36
2020-07-06 11:00:00 25.9 3 Este 16 Oeste 0 -- -- 38
2020-07-06 10:00:00 25.2 5 Este 19 Este 0 -- -- 38
2020-07-06 09:00:00 23.7 10 Este 29 Nordeste 0 -- -- 41
2020-07-06 08:00:00 21.7 17 Nordeste 26 Nordeste 0 -- -- 32
2020-07-06 07:00:00 20.5 14 Norte 26 Noroeste 0 -- -- 25
2020-07-06 06:00:00 20 21 Noroeste 27 Noroeste 0 -- -- 26
2020-07-06 05:00:00 19.4 17 Noroeste 24 Noroeste 0 -- -- 38
2020-07-06 04:00:00 20.1 12 Noroeste 18 Norte 0 -- -- 34
2020-07-06 03:00:00 20.3 12 Norte 15 Norte 0 -- -- 48
2020-07-06 02:00:00 19.9 10 Norte 14 Norte 0 -- -- 60
2020-07-06 01:00:00 20.5 8 Norte 13 Noroeste 0 -- -- 56
2020-07-06 00:00:00 20.2 8 Noroeste 12 Noroeste 0 -- -- 52
2020-07-05 23:00:00 20.5 6 Sudoeste 12 Sudoeste 0 -- -- 50
2020-07-05 22:00:00 20.1 6 Sudoeste 12 Oeste 0 -- -- 54
2020-07-05 21:00:00 20.5 3 Sudoeste 10 Norte 0 -- -- 65
2020-07-05 20:00:00 22.3 4 Norte 10 Noroeste 0 -- -- 57
2020-07-05 19:00:00 24.8 0 Calma 15 Norte 0 -- -- 54
2020-07-05 18:00:00 24.5 5 Nordeste 19 Noroeste 0 -- -- 53
2020-07-05 17:00:00 23 6 Norte 18 Norte 0 -- -- 58
2020-07-05 16:00:00 23.1 8 Nordeste 19 Noroeste 0 -- -- 62
2020-07-05 15:00:00 23 7 Nordeste 55 Sudeste 0 -- -- 65
2020-07-05 14:00:00 24 9 Norte 19 Norte 0 -- -- 53
2020-07-05 13:00:00 24 5 Noroeste 19 Norte 0 -- -- 52
2020-07-05 12:00:00 22.3 11 Norte 19 Noroeste 0 -- -- 54
2020-07-05 11:00:00 22.8 5 Norte 12 Noroeste 0 -- -- 50
2020-07-05 10:00:00 22.6 3 Noroeste 14 Sudeste 0 -- -- 44
2020-07-05 09:00:00 20.8 9 Sur 15 Sur 0 -- -- 43
2020-07-05 08:00:00 19.2 11 Sudeste 14 Sur 0 -- -- 45
2020-07-05 07:00:00 17.6 7 Sur 10 Sur 0 -- -- 46
2020-07-05 06:00:00 17.1 5 Norte 8 Nordeste 0 -- -- 57
2020-07-05 05:00:00 17.3 6 Nordeste 13 Norte 0 -- -- 59
2020-07-05 04:00:00 17.2 8 Norte 14 Noroeste 0 -- -- 58
2020-07-05 03:00:00 15.8 9 Norte 20 Norte 0 -- -- 99
2020-07-05 02:00:00 16.1 15 Norte 30 Norte 0 -- -- 99
2020-07-05 01:00:00 16.2 21 Noroeste 28 Norte 0 -- -- 99
2020-07-05 00:00:00 16.2 17 Noroeste 50 Noroeste 0 -- -- 99
2020-07-04 23:00:00 16.4 15 Noroeste 19 Noroeste 0 -- -- 99
2020-07-04 22:00:00 16.8 10 Noroeste 15 Noroeste 0 -- -- 99
2020-07-04 21:00:00 18.1 7 Norte 15 Norte 0 -- -- 96
2020-07-04 20:00:00 19 6 Norte 18 Noroeste 0 -- -- 89
2020-07-04 19:00:00 21.4 7 Norte 17 Norte 0 -- -- 81
2020-07-04 18:00:00 21.4 8 Norte 24 Noroeste 0 -- -- 80
2020-07-04 17:00:00 20.5 15 Norte 32 Norte 0 -- -- 86
2020-07-04 16:00:00 23 18 Noroeste 28 Norte 0 -- -- 65
2020-07-04 15:00:00 21.4 14 Noroeste 25 Noroeste 0 -- -- 77
2020-07-04 14:00:00 20.2 15 Noroeste 23 Noroeste 0 -- -- 84
2020-07-04 13:00:00 19.2 12 Noroeste 26 Norte 0 -- -- 90
2020-07-04 12:00:00 19.2 13 Noroeste 31 Noroeste 0 -- -- 90
2020-07-04 11:00:00 18.6 14 Noroeste 28 Noroeste 0 -- -- 91
2020-07-04 10:00:00 20.3 12 Noroeste 23 Noroeste 0 -- -- 84
2020-07-04 09:00:00 18 14 Noroeste 26 Noroeste 0 -- -- 94
2020-07-04 08:00:00 15.6 15 Noroeste 26 Oeste 0 -- -- 99
2020-07-04 07:00:00 15 12 Oeste 24 Oeste 0 -- -- 99
2020-07-04 06:00:00 15.1 10 Oeste 24 Oeste 0 -- -- 99
2020-07-04 05:00:00 15 11 Oeste 22 Oeste 0 -- -- 99
2020-07-04 04:00:00 14.8 13 Noroeste 23 Noroeste 0 -- -- 99
2020-07-04 03:00:00 15.2 15 Noroeste 21 Noroeste 0 -- -- 99
2020-07-04 02:00:00 14.9 16 Noroeste 26 Noroeste 0 -- -- 99
2020-07-04 01:00:00 15.8 12 Oeste 21 Oeste 0 -- -- 96
2020-07-04 00:00:00 16.1 10 Oeste 22 Oeste 0 -- -- 95
2020-07-03 23:00:00 16.6 12 Oeste 25 Oeste 0 -- -- 90
2020-07-03 22:00:00 16.1 8 Sudoeste 21 Oeste 0 -- -- 98
2020-07-03 21:00:00 16.4 10 Sur 15 Sur 0 -- -- 95
2020-07-03 20:00:00 18.8 7 Sur 16 Noroeste 0 -- -- 84
2020-07-03 19:00:00 20.6 6 Sur 14 Sudoeste 0 -- -- 74
2020-07-03 18:00:00 19.2 6 Sudeste 13 Sudeste 0 -- -- 80
2020-07-03 17:00:00 20.5 2 Nordeste 14 Nordeste 0 -- -- 75
2020-07-03 16:00:00 21 4 Norte 14 Noroeste 0 -- -- 76
2020-07-03 15:00:00 21.4 3 Sudeste 17 Sudeste 0 -- -- 74
2020-07-03 14:00:00 21.8 4 Este 24 Sudeste 0 -- -- 72
2020-07-03 13:00:00 22.9 11 Este 27 Sudeste 0 -- -- 62
2020-07-03 12:00:00 20.4 23 Este 38 Sudeste 0 -- -- 71
2020-07-03 11:00:00 18.9 30 Este 43 Sudeste 0 -- -- 75
2020-07-03 10:00:00 17.8 31 Sudeste 40 Sudeste 0 -- -- 81
2020-07-03 09:00:00 17.2 30 Este 39 Este 0 -- -- 79
2020-07-03 08:00:00 17.6 23 Este 37 Este 0 -- -- 81
2020-07-03 07:00:00 17.1 26 Este 46 Este 0 -- -- 76
2020-07-03 06:00:00 15.9 27 Este 40 Este 0 -- -- 95
2020-07-03 05:00:00 16.6 18 Este 27 Este 0 -- -- 99
2020-07-03 04:00:00 17.6 12 Este 20 Este 0 -- -- 99
2020-07-03 03:00:00 17.7 10 Este 20 Este 0 -- -- 99
2020-07-03 02:00:00 18.2 15 Este 32 Sudeste 0 -- -- 99
2020-07-03 01:00:00 18.9 13 Este 22 Sudeste 0 -- -- 99
2020-07-03 00:00:00 19.9 3 Nordeste 7 Nordeste 0 -- -- 94
2020-07-02 23:00:00 20.4 3 Nordeste 10 Sur 0 -- -- 94
2020-07-02 22:00:00 21.3 5 Sudeste 13 Norte 0 -- -- 90
2020-07-02 21:00:00 23.3 9 Noroeste 18 Noroeste 0 -- -- --
2020-07-02 20:00:00 23.1 14 Sudeste 21 Sur 0 -- -- 86
2020-07-02 19:00:00 26.1 6 Sur 21 Sur 0 -- -- 72
2020-07-02 18:00:00 26.7 6 Sur 21 Sudoeste 0 -- -- 63
2020-07-02 17:00:00 25.7 13 Sur 25 Sudoeste 0 -- -- 68
2020-07-02 16:00:00 27 13 Sur 24 Sudoeste 0 -- -- 71
2020-07-02 15:00:00 27.5 13 Sur 26 Sur 0 -- -- 65
2020-07-02 14:00:00 26.4 12 Sur 25 Sur 0 -- -- 66
2020-07-02 13:00:00 26.4 13 Sur 28 Sudeste 0 -- -- 63
2020-07-02 12:00:00 25.5 12 Sur 25 Sur 0 -- -- 59
2020-07-02 11:00:00 25.3 13 Sur 30 Sudeste 0 -- -- 53
2020-07-02 10:00:00 24.3 24 Sudeste 34 Sudeste 0 -- -- 45
2020-07-02 09:00:00 22.9 22 Sudeste 29 Sudeste 0 -- -- 44
2020-07-02 08:00:00 22.7 14 Sudeste 24 Sudeste 0 -- -- 47
2020-07-02 07:00:00 21.7 20 Sudeste 24 Sudeste 0 -- -- 51
2020-07-02 06:00:00 23.3 9 Sur 16 Sur 0 -- -- 43
2020-07-02 05:00:00 25.1 10 Sudoeste 16 Sudoeste 0 -- -- 28
2020-07-02 04:00:00 25 13 Sudoeste 18 Sudoeste 0 -- -- 28
2020-07-02 03:00:00 25 11 Oeste 21 Oeste 0 -- -- 38
2020-07-02 02:00:00 24.9 15 Oeste 26 Oeste 0 -- -- 40
2020-07-02 01:00:00 23.4 15 Noroeste 32 Norte 0 -- -- 45
2020-07-02 00:00:00 24.4 13 Noroeste 23 Oeste 0 -- -- 38
2020-07-01 23:00:00 25.2 13 Noroeste 24 Oeste 0 -- -- 37
2020-07-01 22:00:00 25.4 16 Noroeste 30 Noroeste 0 -- -- 37
2020-07-01 21:00:00 25.3 22 Noroeste 35 Noroeste 0 -- -- 37
2020-07-01 20:00:00 25.6 19 Noroeste 31 Noroeste 0 -- -- 40
2020-07-01 19:00:00 27.9 21 Noroeste 28 Noroeste 0 -- -- 35
2020-07-01 18:00:00 26.8 10 Norte 21 Noroeste 0 -- -- 41
2020-07-01 17:00:00 24.8 9 Norte 16 Nordeste 0 -- -- 81
2020-07-01 16:00:00 28.4 7 Sur 22 Sur 0 -- -- 50
2020-07-01 15:00:00 28.7 10 Sur 22 Sudeste 0 -- -- 52
2020-07-01 14:00:00 27.8 8 Sur 22 Sudoeste 0 -- -- 53
2020-07-01 13:00:00 25.9 4 Nordeste 17 Norte 0 -- -- 65
2020-07-01 12:00:00 25.5 7 Norte 19 Noroeste 0 -- -- 51
2020-07-01 11:00:00 24.9 5 Nordeste 13 Noroeste 0 -- -- 57
2020-07-01 10:00:00 25.2 6 Noroeste 27 Sudeste 0 -- -- 40
2020-07-01 09:00:00 22.9 24 Sudeste 40 Sudeste 0 -- -- 46
2020-07-01 08:00:00 22.6 33 Sudeste 41 Sudeste 0 -- -- 37
2020-07-01 07:00:00 22.7 34 Sudeste 42 Sudeste 0 -- -- 34
2020-07-01 06:00:00 22.6 29 Sudeste 43 Sur 0 -- -- 34
2020-07-01 05:00:00 22.5 30 Sudeste 38 Sur 0 -- -- 35
2020-07-01 04:00:00 22.8 21 Sudeste 36 Sudeste 0 -- -- 36
2020-07-01 03:00:00 22.6 30 Sudeste 43 Sudeste 0 -- -- 38
2020-07-01 02:00:00 21.5 30 Sur 41 Sur 0 -- -- 41
2020-07-01 01:00:00 22.9 31 Sur 44 Sur 0 -- -- 40
2020-07-01 00:00:00 23.2 29 Sur 38 Sudeste 0 -- -- 39
2020-06-30 23:00:00 23.6 27 Sur 38 Sur 0 -- -- 38
2020-06-30 22:00:00 23.3 30 Sur 44 Sur 0 -- -- 40
2020-06-30 21:00:00 21.9 33 Sur 44 Sur 0 -- -- 74
2020-06-30 20:00:00 24 21 Sur 31 Sudeste 0 -- -- 57
2020-06-30 19:00:00 25.7 17 Sur 27 Sur 0 -- -- 49
2020-06-30 18:00:00 26.7 13 Sur 26 Sur 0 -- -- 49
2020-06-30 17:00:00 26.4 16 Sur 30 Sur 0 -- -- 51
2020-06-30 16:00:00 27.7 13 Sur 27 Sur 0 -- -- 51
2020-06-30 15:00:00 27.5 13 Sur 26 Sur 0 -- -- 57
2020-06-30 14:00:00 26.4 13 Sur 27 Sur 0 -- -- 67
2020-06-30 13:00:00 27.1 17 Sur 29 Sur 0 -- -- 53
2020-06-30 12:00:00 25.9 13 Sur 25 Sur 0 -- -- 57
2020-06-30 11:00:00 24.3 13 Sur 21 Sur 0 -- -- 70
2020-06-30 10:00:00 26.8 5 Sudeste 9 Sudeste 0 -- -- 39
2020-06-30 09:00:00 26.6 0 Calma 5 Sudeste 0 -- -- 36
2020-06-30 08:00:00 25.2 3 Oeste 8 Sudoeste 0 -- -- 34
2020-06-30 07:00:00 22.2 6 Sudoeste 9 Sudoeste 0 -- -- 40
2020-06-30 06:00:00 22 6 Sur 15 Sur 0 -- -- 40
2020-06-30 05:00:00 21.5 12 Sur 17 Sur 0 -- -- 43
2020-06-30 04:00:00 21.8 9 Sur 13 Sur 0 -- -- 42
2020-06-30 03:00:00 21.8 11 Sudeste 14 Sur 0 -- -- 41
2020-06-30 02:00:00 22.2 13 Sur 21 Sur 0 -- -- 38
2020-06-30 01:00:00 22.2 18 Sur 23 Sur 0 -- -- 41
2020-06-30 00:00:00 22.2 20 Sur 27 Sur 0 -- -- 45
2020-06-29 23:00:00 20.7 21 Sur 26 Sur 0 -- -- 80
2020-06-29 22:00:00 19.8 23 Sur 25 Sur 0 -- -- 96
2020-06-29 21:00:00 20.5 17 Sudeste 22 Sur 0 -- -- 92
2020-06-29 20:00:00 21.3 16 Sur 23 Sur 0 -- -- 90
2020-06-29 19:00:00 24.1 15 Sur 27 Sur 0 -- -- 71
2020-06-29 18:00:00 24.4 18 Sur 26 Sur 0 -- -- 66
2020-06-29 17:00:00 24.4 11 Sur 22 Sur 0 -- -- 72
2020-06-29 16:00:00 24.4 14 Sur 23 Sudoeste 0 -- -- 72
2020-06-29 15:00:00 25.5 9 Sur 24 Sur 0 -- -- 67
2020-06-29 14:00:00 26.3 13 Sur 24 Sur 0 -- -- 60
2020-06-29 13:00:00 25.7 14 Sur 25 Sudoeste 0 -- -- 57
2020-06-29 12:00:00 25.5 8 Sur 15 Sur 0 -- -- 64
2020-06-29 11:00:00 24.3 6 Sur 18 Sur 0 -- -- 77
2020-06-29 10:00:00 24.7 5 Sudeste 14 Sur 0 -- -- --
2020-06-29 09:00:00 24 4 Sur 11 Sudoeste 0 -- -- 56
2020-06-29 08:00:00 22.7 7 Oeste 11 Sudoeste 0 -- -- 50
2020-06-29 07:00:00 20.9 7 Noroeste 11 Noroeste 0 -- -- 59
2020-06-29 06:00:00 20.6 5 Noroeste 10 Oeste 0 -- -- 62
2020-06-29 05:00:00 20.7 6 Sudoeste 18 Sur 0 -- -- 55
2020-06-29 04:00:00 20.3 13 Sur 17 Sur 0 -- -- 78
2020-06-29 03:00:00 21 0 Calma 12 Sur 0 -- -- 64
2020-06-29 02:00:00 21.6 12 Sur 19 Sur 0 -- -- 65
2020-06-29 01:00:00 21.8 15 Sur 21 Sur 0 -- -- 61
2020-06-29 00:00:00 21.6 16 Sur 19 Sur 0 -- -- 65
2020-06-28 23:00:00 22.6 12 Sur 15 Sur 0 -- -- 51
2020-06-28 22:00:00 22.5 0 Calma 8 Este 0 -- -- 52
2020-06-28 21:00:00 20.9 7 Este 15 Sudeste 0 -- -- 96
2020-06-28 20:00:00 21.3 10 Sudeste 15 Sur 0 -- -- 96
2020-06-28 19:00:00 22.6 10 Sur 19 Sur 0 -- -- 89
2020-06-28 18:00:00 24.3 8 Sur 19 Sudeste 0 -- -- 76
2020-06-28 17:00:00 24.2 11 Sur 20 Sudoeste 0 -- -- 76
2020-06-28 16:00:00 24.8 8 Sur 19 Sudoeste 0 -- -- 72
2020-06-28 15:00:00 24.9 9 Sur 19 Sur 0 -- -- 72
2020-06-28 14:00:00 25.6 6 Sur 22 Sudoeste 0 -- -- 69
2020-06-28 13:00:00 25.4 9 Sur 20 Sur 0 -- -- 64
2020-06-28 12:00:00 24.2 12 Sur 19 Sur 0 -- -- 72
2020-06-28 11:00:00 24.8 3 Sur 10 Este 0 -- -- 65
2020-06-28 10:00:00 23.3 4 Norte 17 Norte 0 -- -- 48
2020-06-28 09:00:00 21 14 Norte 19 Norte 0 -- -- 47
2020-06-28 08:00:00 19 10 Norte 22 Norte 0 -- -- 77
2020-06-28 07:00:00 17.4 19 Norte 33 Noroeste 0 -- -- 92
2020-06-28 06:00:00 17 27 Noroeste 41 Noroeste 0 -- -- 99
2020-06-28 05:00:00 17.2 27 Noroeste 35 Noroeste 0 -- -- 99
2020-06-28 04:00:00 17.1 14 Noroeste 17 Noroeste 0 -- -- 96
2020-06-28 03:00:00 16.8 9 Sur 17 Oeste 0 -- -- 99
2020-06-28 02:00:00 17.7 9 Oeste 16 Oeste 0 -- -- 97
2020-06-28 01:00:00 18.6 7 Noroeste 17 Noroeste 0 -- -- 96
2020-06-28 00:00:00 19.2 16 Noroeste 19 Noroeste 0 -- -- 92
2020-06-27 23:00:00 18.8 11 Norte 14 Norte 0 -- -- 99
2020-06-27 22:00:00 18.4 8 Sudeste 13 Sudeste 0 -- -- 99
2020-06-27 21:00:00 19.3 11 Sur 16 Sur 0 -- -- 99
2020-06-27 20:00:00 21.6 9 Sur 19 Sur 0 -- -- 88
2020-06-27 19:00:00 24.1 9 Sur 22 Sudeste 0 -- -- 76
2020-06-27 18:00:00 24.1 10 Sur 22 Sur 0 -- -- 79
2020-06-27 17:00:00 24.1 9 Sur 19 Sudeste 0 -- -- 80
2020-06-27 16:00:00 20.3 10 Nordeste 28 Sudeste 0 -- -- 97
2020-06-27 15:00:00 25.4 5 Sudeste 28 Sudeste 0 -- -- 68
2020-06-27 14:00:00 24.6 9 Sur 33 Oeste 0 -- -- 72
2020-06-27 13:00:00 24.1 7 Sur 17 Sur 0 -- -- 71
2020-06-27 12:00:00 21 7 Nordeste 19 Nordeste 0 -- -- 89
2020-06-27 11:00:00 18.3 9 Norte 18 Noroeste 0 -- -- 98
2020-06-27 10:00:00 17.8 7 Noroeste 19 Noroeste 0 -- -- 99
2020-06-27 09:00:00 17.1 10 Noroeste 23 Norte 0 -- -- 99
2020-06-27 08:00:00 16.5 9 Noroeste 21 Noroeste 0 -- -- 99
2020-06-27 07:00:00 16.3 13 Noroeste 20 Noroeste 0 -- -- 99
2020-06-27 06:00:00 16.2 8 Nordeste 18 Norte 0 -- -- 99
2020-06-27 05:00:00 16.1 13 Norte 17 Noroeste 0 -- -- 99
2020-06-27 04:00:00 16.3 9 Sur 18 Sur 0 -- -- 99
2020-06-27 03:00:00 16 12 Sur 32 Sur 0 -- -- 99
2020-06-27 02:00:00 15.7 29 Sudeste 41 Sudeste 0 -- -- 99
2020-06-27 01:00:00 16 28 Sur 46 Sudeste 0 -- -- 99
2020-06-27 00:00:00 15.9 28 Sudeste 36 Sudeste 0 -- -- 96
2020-06-26 23:00:00 17.5 24 Sudeste 34 Sudeste 0 -- -- 67
2020-06-26 22:00:00 18.2 21 Sur 30 Sur 0 -- -- 64
2020-06-26 21:00:00 19.9 13 Sudeste 27 Sudeste 0 -- -- 59
2020-06-26 20:00:00 21.8 18 Sur 35 Sur 0 -- -- 53
2020-06-26 19:00:00 24.8 16 Sur 36 Sudeste 0 -- -- 35
2020-06-26 18:00:00 25.3 18 Sur 35 Sur 0 -- -- 39
2020-06-26 17:00:00 25.7 17 Sur 35 Sur 0 -- -- 36
2020-06-26 16:00:00 27.8 11 Sur 31 Sudeste 0 -- -- 41
2020-06-26 15:00:00 26.5 16 Sudeste 37 Sudeste 0 -- -- 37
2020-06-26 14:00:00 26.5 15 Sudeste 33 Sudeste 0 -- -- 33
2020-06-26 13:00:00 26 17 Sur 34 Sur 0 -- -- 35
2020-06-26 12:00:00 24.5 20 Sudeste 36 Sur 0 -- -- 36
2020-06-26 11:00:00 24.2 17 Sur 31 Sur 0 -- -- 37
2020-06-26 10:00:00 24 15 Sudeste 29 Sudeste 0 -- -- 40
2020-06-26 09:00:00 22.2 14 Este 21 Sudeste 0 -- -- 42
2020-06-26 08:00:00 20.7 13 Este 20 Sudeste 0 -- -- 45
2020-06-26 07:00:00 19.4 15 Sudeste 21 Este 0 -- -- 52
2020-06-26 06:00:00 19.1 13 Este 17 Este 0 -- -- 52
2020-06-26 05:00:00 19.6 8 Nordeste 19 Este 0 -- -- 50
2020-06-26 04:00:00 19.4 16 Este 23 Sudeste 0 -- -- 50
2020-06-26 03:00:00 18.9 18 Sudeste 27 Sudeste 0 -- -- 51
2020-06-26 02:00:00 19.1 21 Sudeste 33 Sudeste 0 -- -- 50
2020-06-26 01:00:00 19.1 27 Sudeste 36 Sudeste 0 -- -- 48
2020-06-26 00:00:00 19 24 Sudeste 31 Sudeste 0 -- -- 48
2020-06-25 23:00:00 19.7 21 Sudeste 27 Este 0 -- -- 45
2020-06-25 22:00:00 20 22 Sudeste 26 Sudeste 0 -- -- 47
2020-06-25 21:00:00 20.4 15 Este 22 Sudeste 0 -- -- 50
2020-06-25 20:00:00 21.9 17 Sudeste 33 Sur 0 -- -- 49
2020-06-25 19:00:00 24.2 23 Sur 39 Sur 0 -- -- 41
2020-06-25 18:00:00 25.3 19 Sudeste 36 Sur 0 -- -- 38
2020-06-25 17:00:00 26.2 20 Sudeste 33 Sur 0 -- -- 35
2020-06-25 16:00:00 26.3 18 Sudeste 34 Sur 0 -- -- 35
2020-06-25 15:00:00 27.1 17 Sudeste 30 Sudeste 0 -- -- 34
2020-06-25 14:00:00 26.1 15 Sur 37 Sur 0 -- -- 35
2020-06-25 13:00:00 26.5 15 Sudeste 31 Sudeste 0 -- -- 36
2020-06-25 12:00:00 24.9 16 Sur 33 Sur 0 -- -- 38
2020-06-25 11:00:00 24 19 Sur 35 Sudeste 0 -- -- 39
2020-06-25 10:00:00 23.3 15 Sudeste 23 Sur 0 -- -- 40
2020-06-25 09:00:00 21.9 15 Sudeste 21 Sudeste 0 -- -- 40
2020-06-25 08:00:00 20.9 14 Sudeste 20 Sudeste 0 -- -- 45
2020-06-25 07:00:00 19.3 17 Sudeste 23 Sur 0 -- -- 45
2020-06-25 06:00:00 18.9 17 Sudeste 21 Sur 0 -- -- 45
2020-06-25 05:00:00 19.8 11 Sudeste 23 Sudeste 0 -- -- 36
2020-06-25 04:00:00 18.8 21 Sudeste 35 Sudeste 0 -- -- 41
2020-06-25 03:00:00 18.9 27 Sur 35 Sur 0 -- -- 47
2020-06-25 02:00:00 18.9 22 Sudeste 27 Sudeste 0 -- -- 47
2020-06-25 01:00:00 19.5 21 Sudeste 31 Sudeste 0 -- -- 44
2020-06-25 00:00:00 19.6 22 Sudeste 26 Este 0 -- -- 59
2020-06-24 23:00:00 19.3 14 Este 23 Sudeste 0 -- -- 67
2020-06-24 22:00:00 19.2 18 Sudeste 21 Sudeste 0 -- -- 66
2020-06-24 21:00:00 20.2 8 Sur 16 Sur 0 -- -- 55
2020-06-24 20:00:00 22.7 7 Sur 17 Sudeste 0 -- -- 47
2020-06-24 19:00:00 26.2 9 Sudeste 17 Sudeste 0 -- -- 41
2020-06-24 18:00:00 25.1 9 Sur 19 Sudoeste 0 -- -- 40
2020-06-24 17:00:00 24.9 9 Sur 22 Sudoeste 0 -- -- 41
2020-06-24 16:00:00 25 11 Sudoeste 28 Sudoeste 0 -- -- 48
2020-06-24 15:00:00 25.8 9 Sudoeste 27 Sur 0 -- -- 49
2020-06-24 14:00:00 25.6 16 Sudeste 26 Sudeste 0 -- -- 38
2020-06-24 13:00:00 26.1 9 Sudeste 21 Sudeste 0 -- -- 40
2020-06-24 12:00:00 25.3 6 Sudeste 22 Sudeste 0 -- -- 40
2020-06-24 11:00:00 24 8 Sudeste 20 Sudeste 0 -- -- 46
2020-06-24 10:00:00 22.3 14 Sudeste 26 Sudeste 0 -- -- 49
2020-06-24 09:00:00 21.2 14 Sudeste 25 Este 0 -- -- 52
2020-06-24 08:00:00 20 13 Este 29 Sudeste 0 -- -- 54
2020-06-24 07:00:00 18.6 22 Sudeste 26 Sudeste 0 -- -- 61
2020-06-24 06:00:00 17.5 23 Sudeste 26 Sudeste 0 -- -- 68
2020-06-24 05:00:00 17.3 17 Sudeste 19 Sudeste 0 -- -- 70
2020-06-24 04:00:00 17 15 Sudeste 18 Sudeste 0 -- -- 73
2020-06-24 03:00:00 17.3 19 Sudeste 27 Sudeste 0 -- -- 75
2020-06-24 02:00:00 16.6 17 Sudeste 24 Sudeste 0 -- -- 87
2020-06-24 01:00:00 17.2 21 Sudeste 30 Sudeste 0 -- -- 86
2020-06-24 00:00:00 17.3 23 Sudeste 27 Sudeste 0 -- -- 81
2020-06-23 23:00:00 17.3 22 Sudeste 29 Sudeste 0 -- -- 91
2020-06-23 22:00:00 17.6 23 Sudeste 30 Sudeste 0 -- -- 94
2020-06-23 21:00:00 18.7 24 Sudeste 28 Sudeste 0 -- -- 88
2020-06-23 20:00:00 20.3 12 Sur 20 Sur 0 -- -- 72
2020-06-23 19:00:00 22.9 11 Sur 18 Sudeste 0 -- -- 60
2020-06-23 18:00:00 23 7 Sur 22 Sudoeste 0 -- -- 59
2020-06-23 17:00:00 23.2 8 Sur 24 Sur 0 -- -- 59
2020-06-23 16:00:00 23 11 Sur 25 Sur 0 -- -- 60
2020-06-23 15:00:00 23.7 11 Sur 24 Sudoeste 0 -- -- 63
2020-06-23 14:00:00 23.5 9 Sur 24 Sudoeste 0 -- -- 62
2020-06-23 13:00:00 23.3 8 Sur 23 Sudoeste 0 -- -- 62
2020-06-23 12:00:00 23.9 9 Sudeste 22 Sudeste 0 -- -- 52
2020-06-23 11:00:00 21.4 10 Sur 21 Sur 0 -- -- 65
2020-06-23 10:00:00 21 13 Sur 25 Sudeste 0 -- -- 58
2020-06-23 09:00:00 20.6 13 Sudeste 20 Sudeste 0 -- -- 53
2020-06-23 08:00:00 19.3 15 Sudeste 22 Este 0 -- -- 54
2020-06-23 07:00:00 17.7 14 Este 17 Este 0 -- -- 66
2020-06-23 06:00:00 16.6 9 Nordeste 15 Norte 0 -- -- 73
2020-06-23 05:00:00 16.4 11 Norte 17 Norte 0 -- -- 71
2020-06-23 04:00:00 16.4 11 Norte 14 Nordeste 0 -- -- 73
2020-06-23 03:00:00 16.4 11 Norte 19 Norte 0 -- -- 77
2020-06-23 02:00:00 16.7 16 Norte 25 Norte 0 -- -- 79
2020-06-23 01:00:00 17.1 21 Noroeste 25 Noroeste 0 -- -- 79
2020-06-23 00:00:00 17.3 18 Noroeste 22 Noroeste 0 -- -- 80
2020-06-22 23:00:00 17.3 12 Noroeste 17 Noroeste 0 -- -- 77
2020-06-22 22:00:00 17.3 6 Noroeste 11 Noroeste 0 -- -- 83
2020-06-22 21:00:00 18.5 5 Noroeste 12 Norte 0 -- -- 87
2020-06-22 20:00:00 19.5 5 Sur 12 Oeste 0 -- -- 83
2020-06-22 19:00:00 23.3 3 Oeste 16 Sudoeste 0 -- -- 65
2020-06-22 18:00:00 25.1 2 Noroeste 14 Noroeste 0 -- -- 57
2020-06-22 17:00:00 23.4 3 Noroeste 15 Noroeste 0 -- -- 60
2020-06-22 16:00:00 21.5 0 Calma 19 Nordeste 0 -- -- 69
2020-06-22 15:00:00 22.8 6 Sudoeste 21 Este 0 -- -- 68
2020-06-22 14:00:00 22.9 10 Sudoeste 27 Sur 0 -- -- --
2020-06-22 13:00:00 21.3 5 Norte 29 Sudoeste 0 -- -- 88
2020-06-22 12:00:00 22.5 0 Calma 19 Sudoeste 0 -- -- 64
2020-06-22 11:00:00 22.3 7 Sur 14 Sur 0 -- -- 61
2020-06-22 10:00:00 22.8 5 Sudeste 16 Sudeste 0 -- -- 56
2020-06-22 09:00:00 20.7 12 Sudeste 23 Sudeste 0 -- -- 54
2020-06-22 08:00:00 19.3 19 Sudeste 25 Sudeste 0 -- -- 59
2020-06-22 07:00:00 18.4 19 Sudeste 23 Sudeste 0 -- -- 65
2020-06-22 06:00:00 18.2 15 Sudeste 22 Sudeste 0 -- -- 64
2020-06-22 05:00:00 18.4 20 Sudeste 26 Sudeste 0 -- -- 64
2020-06-22 04:00:00 18.5 14 Sudeste 19 Sudeste 0 -- -- 65
2020-06-22 03:00:00 19 7 Este 11 Nordeste 0 -- -- 64
2020-06-22 02:00:00 20.1 4 Este 12 Nordeste 0 -- -- 62
2020-06-22 01:00:00 20 12 Nordeste 13 Nordeste 0 -- -- 66
2020-06-22 00:00:00 19.7 9 Norte 16 Norte 0 -- -- 56
2020-06-21 23:00:00 20.1 13 Norte 21 Norte 0 -- -- 54
2020-06-21 22:00:00 20.8 15 Norte 23 Norte 0 -- -- 52
2020-06-21 21:00:00 21.3 15 Noroeste 22 Noroeste 0 -- -- 54
2020-06-21 20:00:00 23 15 Noroeste 22 Noroeste 0 -- -- 50
2020-06-21 19:00:00 25.6 10 Noroeste 16 Noroeste 0 -- -- 44
2020-06-21 18:00:00 24 4 Sudoeste 18 Sudoeste 0 -- -- 47
2020-06-21 17:00:00 23.2 7 Sudoeste 18 Sudoeste 0 -- -- 51
2020-06-21 16:00:00 22.3 11 Sur 24 Sur 0 -- -- 54
2020-06-21 15:00:00 22.8 14 Sur 31 Sur 0 -- -- 57
2020-06-21 14:00:00 23.6 13 Sur 26 Sur 0 -- -- 59
2020-06-21 13:00:00 24.1 8 Sur 19 Sur 0 -- -- 59
2020-06-21 12:00:00 22.5 12 Sur 20 Sur 0 -- -- 67
2020-06-21 11:00:00 21.7 5 Sur 21 Sur 0 -- -- 75
2020-06-21 10:00:00 20.7 14 Sudeste 22 Sudeste 0 -- -- 73
2020-06-21 09:00:00 20.8 7 Sudeste 12 Nordeste 0 -- -- 57
2020-06-21 08:00:00 19.3 6 Nordeste 23 Norte 0 -- -- 58
2020-06-21 07:00:00 18.3 16 Norte 22 Noroeste 0 -- -- 60
2020-06-21 06:00:00 17.2 19 Noroeste 26 Norte 0 -- -- 70
2020-06-21 05:00:00 17.1 24 Noroeste 29 Noroeste 0 -- -- 64
2020-06-21 04:00:00 17.9 21 Noroeste 37 Noroeste 0 -- -- 61
2020-06-21 03:00:00 18 15 Oeste 33 Noroeste 0 -- -- 64
2020-06-21 02:00:00 17.7 23 Oeste 33 Noroeste 0 -- -- 65
2020-06-21 01:00:00 16.8 23 Noroeste 32 Noroeste 0 -- -- 76
2020-06-21 00:00:00 17.1 19 Noroeste 26 Noroeste 0 -- -- 81
2020-06-20 23:00:00 17.6 10 Noroeste 18 Noroeste 0 -- -- 69
2020-06-20 22:00:00 18.3 11 Oeste 21 Oeste 0 -- -- 59
2020-06-20 21:00:00 18.6 8 Sudoeste 21 Oeste 0 -- -- 71
2020-06-20 20:00:00 18 8 Sur 20 Sur 0 -- -- 86
2020-06-20 19:00:00 21.1 8 Sur 15 Sudoeste 0 -- -- 76
2020-06-20 18:00:00 21.1 10 Sudoeste 23 Sudoeste 0 -- -- 76
2020-06-20 17:00:00 22.2 6 Sudoeste 21 Sudoeste 0 -- -- 68
2020-06-20 16:00:00 22 6 Sudoeste 19 Sudoeste 0 -- -- 71
2020-06-20 15:00:00 22.1 5 Sudoeste 18 Sudoeste 0 -- -- 78
2020-06-20 14:00:00 20.4 8 Sur 21 Sudoeste 0 -- -- 83
2020-06-20 13:00:00 20.9 8 Sur 21 Sudoeste 0 -- -- 80
2020-06-20 12:00:00 21.1 6 Sur 16 Sudoeste 0 -- -- 73
2020-06-20 11:00:00 21.4 5 Sudoeste 12 Sudoeste 0 -- -- 71
2020-06-20 10:00:00 19.5 0 Calma 10 Oeste 0 -- -- 77
2020-06-20 09:00:00 18.3 2 Sur 14 Oeste 0 -- -- 76
2020-06-20 08:00:00 16.8 6 Noroeste 18 Oeste 0 -- -- 87
2020-06-20 07:00:00 14.9 13 Noroeste 18 Noroeste 0 -- -- 97
2020-06-20 06:00:00 14.3 9 Noroeste 17 Noroeste 0 -- -- 99
2020-06-20 05:00:00 14.2 9 Noroeste 15 Noroeste 0 -- -- 99
2020-06-20 04:00:00 14 8 Norte 14 Norte 0 -- -- 99
2020-06-20 03:00:00 14.3 10 Norte 17 Noroeste 0 -- -- 99
2020-06-20 02:00:00 14.6 12 Noroeste 19 Noroeste 0 -- -- 95
2020-06-20 01:00:00 14.6 11 Noroeste 17 Noroeste 0 -- -- 99
2020-06-20 00:00:00 14.7 13 Noroeste 21 Noroeste 0 -- -- 99
2020-06-19 23:00:00 14 6 Sudoeste 17 Sur 0 -- -- 99
2020-06-19 22:00:00 14.7 8 Sur 14 Sudoeste 0 -- -- 99
2020-06-19 21:00:00 15.2 8 Sur 17 Sur 0 -- -- 99
2020-06-19 20:00:00 15.6 8 Sur 17 Sur 0 -- -- 99
2020-06-19 19:00:00 15.5 12 Sur 23 Sur 0 -- -- 99
2020-06-19 18:00:00 16.9 4 Sudeste 19 Nordeste 0 -- -- 96
2020-06-19 17:00:00 17 9 Nordeste 21 Nordeste 0 -- -- 93
2020-06-19 16:00:00 18.9 6 Nordeste 17 Este 0 -- -- 82
2020-06-19 15:00:00 20.1 5 Este 16 Sudoeste 0 -- -- 76
2020-06-19 14:00:00 19.1 5 Norte 16 Sudeste 0 -- -- 86
2020-06-19 13:00:00 19.3 7 Sur 17 Sudeste 0 -- -- 85
2020-06-19 12:00:00 17.9 5 Norte 13 Noroeste 0 -- -- 90
2020-06-19 11:00:00 18.3 3 Sudoeste 12 Sur 0 -- -- 80
2020-06-19 10:00:00 16.3 9 Noroeste 17 Noroeste 0 -- -- 96
2020-06-19 09:00:00 16.1 13 Noroeste 17 Norte 0 -- -- 94
2020-06-19 08:00:00 15.7 10 Noroeste 13 Noroeste 0 -- -- 95
2020-06-19 07:00:00 14.9 3 Norte 13 Nordeste 0 -- -- 91
2020-06-19 06:00:00 14.6 8 Nordeste 12 Nordeste 0 -- -- 99
2020-06-19 05:00:00 14.7 6 Este 11 Sudeste 0 -- -- 85
2020-06-19 04:00:00 14.9 2 Norte 21 Sudeste 0 -- -- 84
2020-06-19 03:00:00 14.5 15 Nordeste 24 Este 0 -- -- 99
2020-06-19 02:00:00 14.5 17 Este 25 Sudeste 0 -- -- 99
2020-06-19 01:00:00 14.7 8 Este 28 Sudeste 0 -- -- 99
2020-06-19 00:00:00 15.3 4 Sudeste 24 Norte 0 -- -- 99
2020-06-18 23:00:00 15.1 21 Norte 29 Noroeste 0 -- -- 99
2020-06-18 22:00:00 15.9 13 Norte 17 Norte 0 -- -- 99
2020-06-18 21:00:00 16.1 10 Sudeste 20 Sur 0 -- -- 96
2020-06-18 20:00:00 17.5 11 Sur 20 Sur 0 -- -- 96
2020-06-18 19:00:00 19.9 14 Sudeste 27 Sur 0 -- -- 83
2020-06-18 18:00:00 19.7 14 Sur 27 Sudeste 0 -- -- 83
2020-06-18 17:00:00 19.8 14 Sudeste 28 Sudeste 0 -- -- 84
2020-06-18 16:00:00 19.5 15 Sudeste 27 Sudeste 0 -- -- 85
2020-06-18 15:00:00 19.9 8 Sur 26 Sur 0 -- -- 80
2020-06-18 14:00:00 20.4 15 Sur 28 Sur 0 -- -- 79
2020-06-18 13:00:00 16.1 18 Noroeste 29 Noroeste 0 -- -- 99
2020-06-18 12:00:00 17.3 7 Norte 22 Sudoeste 0 -- -- 97
2020-06-18 11:00:00 19.3 8 Sur 21 Sur 0 -- -- 77
2020-06-18 10:00:00 18.9 5 Sudeste 31 Sur 0 -- -- 79
2020-06-18 09:00:00 15.6 28 Sur 38 Sur 0 -- -- 96
2020-06-18 08:00:00 14.3 26 Sudeste 32 Sur 0 -- -- 99
2020-06-18 07:00:00 13.9 13 Sudeste 20 Sudeste 0 -- -- 99
2020-06-18 06:00:00 13.7 7 Sudeste 13 Sudeste 0 -- -- 99
2020-06-18 05:00:00 13.8 11 Sur 17 Sur 0 -- -- 99
2020-06-18 04:00:00 14 5 Sur 15 Sur 0 -- -- 99
2020-06-18 03:00:00 14.7 0 Calma 6 Norte 0 -- -- 77
2020-06-18 02:00:00 14.2 5 Sur 12 Sur 0 -- -- 99
2020-06-18 01:00:00 14.2 3 Oeste 15 Sur 0 -- -- 98
2020-06-18 00:00:00 14.2 14 Sur 22 Sur 0 -- -- 99
2020-06-17 23:00:00 14.4 17 Sudeste 22 Sudeste 0 -- -- 99
2020-06-17 22:00:00 14.3 20 Sudeste 27 Sudeste 0 -- -- 99
2020-06-17 21:00:00 15 20 Sudeste 26 Sudeste 0 -- -- 99
2020-06-17 20:00:00 15.2 14 Sudeste 23 Sudeste 0 -- -- 99
2020-06-17 19:00:00 16.5 13 Sudeste 21 Sur 0 -- -- 98
2020-06-17 18:00:00 18.7 7 Sur 19 Sur 0 -- -- 85
2020-06-17 17:00:00 17.2 4 Sudoeste 23 Sudoeste 0 -- -- 86
2020-06-17 16:00:00 18.5 13 Sur 27 Sudeste 0 -- -- 78
2020-06-17 15:00:00 18.9 3 Sudoeste 24 Sudeste 0 -- -- 81
2020-06-17 14:00:00 18.9 4 Sudoeste 24 Sur 0 -- -- 81
2020-06-17 13:00:00 19.9 10 Sur 22 Sur 0 -- -- 63
2020-06-17 12:00:00 17.8 6 Sur 18 Sudoeste 0 -- -- 75
2020-06-17 11:00:00 17.1 6 Sur 14 Sudoeste 0 -- -- 85
2020-06-17 10:00:00 15.6 12 Sur 19 Sudeste 0 -- -- 91
2020-06-17 09:00:00 15.5 11 Sudeste 17 Sudeste 0 -- -- 79
2020-06-17 08:00:00 16.4 5 Nordeste 11 Nordeste 0 -- -- 58
2020-06-17 07:00:00 14 4 Nordeste 19 Noroeste 0 -- -- 72
2020-06-17 06:00:00 13.5 17 Noroeste 30 Noroeste 0 -- -- 76
2020-06-17 05:00:00 14.8 23 Norte 30 Norte 0 -- -- 62
2020-06-17 04:00:00 14.2 26 Norte 41 Noroeste 0 -- -- 72
2020-06-17 03:00:00 12.6 32 Noroeste 42 Norte 0 -- -- 99
2020-06-17 02:00:00 13 33 Noroeste 40 Noroeste 0 -- -- 99
2020-06-17 01:00:00 13.4 32 Noroeste 46 Noroeste 0 -- -- 99
2020-06-17 00:00:00 14.2 18 Noroeste 24 Noroeste 0 -- -- 91
2020-06-16 23:00:00 14.6 12 Oeste 19 Noroeste 0 -- -- 94
2020-06-16 22:00:00 15.8 12 Noroeste 24 Oeste 0 -- -- 85
2020-06-16 21:00:00 15.3 5 Sudoeste 15 Sur 0 -- -- 96
2020-06-16 20:00:00 15.9 11 Norte 17 Noroeste 0 -- -- 95
2020-06-16 19:00:00 19.1 6 Sur 22 Noroeste 0 -- -- 83
2020-06-16 18:00:00 17.6 17 Noroeste 27 Norte 0 -- -- 83
2020-06-16 17:00:00 17.6 9 Norte 21 Sur 0 -- -- 87
2020-06-16 16:00:00 17.8 10 Sur 25 Sudoeste 0 -- -- 97
2020-06-16 15:00:00 19 13 Sur 26 Sudeste 0 -- -- 88
2020-06-16 14:00:00 19.7 13 Sur 27 Sudeste 0 -- -- 76
2020-06-16 13:00:00 20.5 8 Sur 26 Sur 0 -- -- 69
2020-06-16 12:00:00 20.8 11 Sudeste 21 Sudeste 0 -- -- 63
2020-06-16 11:00:00 19.2 8 Sur 20 Este 0 -- -- 66
2020-06-16 10:00:00 17.4 21 Sudeste 35 Sudeste 0 -- -- 70
2020-06-16 09:00:00 15.5 28 Sudeste 39 Este 0 -- -- 75
2020-06-16 08:00:00 14.9 27 Sudeste 35 Sudeste 0 -- -- 76
2020-06-16 07:00:00 15.5 18 Este 23 Sudeste 0 -- -- 69
2020-06-16 06:00:00 17 7 Sudeste 9 Sudeste 0 -- -- 51
2020-06-16 05:00:00 17.8 5 Sudoeste 15 Oeste 0 -- -- 45
2020-06-16 04:00:00 18.2 10 Oeste 14 Oeste 0 -- -- 46
2020-06-16 03:00:00 17.3 5 Sudoeste 11 Sudoeste 0 -- -- 51
2020-06-16 02:00:00 17 4 Oeste 21 Noroeste 0 -- -- 52
2020-06-16 01:00:00 16.8 18 Noroeste 21 Noroeste 0 -- -- 54
2020-06-16 00:00:00 17.1 10 Noroeste 16 Noroeste 0 -- -- 52
2020-06-15 23:00:00 17.6 11 Noroeste 23 Noroeste 0 -- -- 47
2020-06-15 22:00:00 17.7 13 Noroeste 20 Noroeste 0 -- -- 50
2020-06-15 21:00:00 18.2 11 Noroeste 19 Noroeste 0 -- -- 56
2020-06-15 20:00:00 20.2 14 Noroeste 25 Oeste 0 -- -- 57
2020-06-15 19:00:00 -- -- -- -- -- -- -- -- --
2020-06-15 18:00:00 23.6 5 Noroeste 16 Noroeste 0 -- -- 64
2020-06-15 17:00:00 22.7 6 Noroeste 18 Oeste 0 -- -- 69
2020-06-15 16:00:00 22.5 5 Oeste 18 Sudoeste 0 -- -- 66
2020-06-15 15:00:00 21.3 7 Sur 19 Sur 0 -- -- 62
2020-06-15 14:00:00 19.6 10 Sur 22 Sur 0 -- -- 80
2020-06-15 13:00:00 19.5 10 Sur 19 Sudoeste 0 -- -- 81
2020-06-15 12:00:00 19.7 7 Sur 19 Sur 0 -- -- 74
2020-06-15 11:00:00 18.7 14 Sur 24 Sur 0 -- -- 79
2020-06-15 10:00:00 19.1 8 Sur 14 Sur 0 -- -- 67
2020-06-15 09:00:00 20.6 5 Oeste 10 Oeste 0 -- -- 27
2020-06-15 08:00:00 18.9 8 Oeste 20 Oeste 0 -- -- 29
2020-06-15 07:00:00 18 10 Oeste 24 Oeste 0 -- -- 28
2020-06-15 06:00:00 17.1 16 Oeste 29 Oeste 0 -- -- 29
2020-06-15 05:00:00 17 10 Oeste 37 Oeste 0 -- -- 39
2020-06-15 04:00:00 16.9 12 Oeste 27 Oeste 0 -- -- 40
2020-06-15 03:00:00 17.1 19 Oeste 29 Oeste 0 -- -- 39
2020-06-15 02:00:00 17.2 19 Sudoeste 30 Sudoeste 0 -- -- 40
2020-06-15 01:00:00 17 18 Sudoeste 25 Sudoeste 0 -- -- 43
2020-06-15 00:00:00 16.9 19 Sudoeste 30 Sudoeste 0 -- -- 42
2020-06-14 23:00:00 16.4 24 Sudoeste 31 Sudoeste 0 -- -- 45
2020-06-14 22:00:00 15.6 24 Sudoeste 31 Sudoeste 0 -- -- 43
2020-06-14 21:00:00 14.8 15 Sudoeste 27 Sudoeste 0 -- -- 80
2020-06-14 20:00:00 15 13 Sur 24 Sur 0 -- -- 97
2020-06-14 19:00:00 17.2 15 Sur 26 Sur 0 -- -- 83
2020-06-14 18:00:00 19.1 8 Sur 21 Sudoeste 0 -- -- 65
2020-06-14 17:00:00 19.3 11 Sur 19 Sudoeste 0 -- -- 61
2020-06-14 16:00:00 17.9 9 Sur 22 Sur 0 -- -- 73
2020-06-14 15:00:00 19.2 7 Sudoeste 20 Sudoeste 0 -- -- 65
2020-06-14 14:00:00 17.4 14 Sur 22 Sudoeste 0 -- -- 69
2020-06-14 13:00:00 17.1 12 Sur 19 Sudoeste 0 -- -- 61
2020-06-14 12:00:00 20 2 Oeste 16 Sur 0 -- -- 54
2020-06-14 11:00:00 17.9 8 Sur 18 Sudeste 0 -- -- 59
2020-06-14 10:00:00 17.2 9 Sur 19 Sur 0 -- -- 59
2020-06-14 09:00:00 16.9 10 Sur 18 Sur 0 -- -- 56
2020-06-14 08:00:00 15.5 12 Sudeste 19 Sudeste 0 -- -- 56
2020-06-14 07:00:00 14.5 8 Sudeste 14 Sudeste 0 -- -- 55
2020-06-14 06:00:00 13.7 10 Este 15 Nordeste 0 -- -- 58
2020-06-14 05:00:00 14.2 11 Nordeste 16 Norte 0 -- -- 55
2020-06-14 04:00:00 14.8 11 Norte 15 Norte 0 -- -- 51
2020-06-14 03:00:00 15.1 8 Norte 17 Norte 0 -- -- 51
2020-06-14 02:00:00 14.7 13 Noroeste 18 Noroeste 0 -- -- 51
2020-06-14 01:00:00 14.2 13 Noroeste 22 Noroeste 0 -- -- 54
2020-06-14 00:00:00 14.3 14 Noroeste 23 Noroeste 0 -- -- 55
2020-06-13 23:00:00 14.1 16 Noroeste 28 Noroeste 0 -- -- 56
2020-06-13 22:00:00 14.7 21 Noroeste 39 Noroeste 0 -- -- 53
2020-06-13 21:00:00 15 18 Noroeste 27 Noroeste 0 -- -- 52
2020-06-13 20:00:00 17 19 Noroeste 27 Oeste 0 -- -- 50
2020-06-13 19:00:00 19.8 17 Noroeste 30 Norte 0 -- -- 40
2020-06-13 18:00:00 17.4 18 Noroeste 31 Noroeste 0 -- -- 58
2020-06-13 17:00:00 16.8 19 Noroeste 37 Noroeste 0 -- -- 57
2020-06-13 16:00:00 18.7 23 Noroeste 43 Noroeste 0 -- -- 50
2020-06-13 15:00:00 17.5 23 Noroeste 36 Noroeste 0 -- -- 58
2020-06-13 14:00:00 16.4 21 Noroeste 34 Norte 0 -- -- 84
2020-06-13 13:00:00 18.1 17 Noroeste 33 Noroeste 0 -- -- 76
2020-06-13 12:00:00 19.8 21 Noroeste 34 Noroeste 0 -- -- 66
2020-06-13 11:00:00 18.6 23 Noroeste 38 Noroeste 0 -- -- 73
2020-06-13 10:00:00 16.9 22 Noroeste 41 Noroeste 0 -- -- 67
2020-06-13 09:00:00 15.1 15 Oeste 46 Oeste 0 -- -- 64
2020-06-13 08:00:00 13 19 Sudoeste 38 Oeste 0 -- -- 86
2020-06-13 07:00:00 11.4 14 Sudoeste 31 Sudoeste 0 -- -- 99
2020-06-13 06:00:00 12.6 14 Sudoeste 27 Sudoeste 0 -- -- 99
2020-06-13 05:00:00 12.9 10 Sur 21 Sudoeste 0 -- -- 99
2020-06-13 04:00:00 13.5 12 Sur 23 Sur 0 -- -- 99
2020-06-13 03:00:00 12.6 17 Sur 28 Sudoeste 0 -- -- 99
2020-06-13 02:00:00 14.9 21 Sudoeste 31 Sudoeste 0 -- -- 69
2020-06-13 01:00:00 15 22 Sudoeste 28 Sudoeste 0 -- -- 63
2020-06-13 00:00:00 14.4 19 Sudoeste 59 Sudoeste 0 -- -- 65
2020-06-12 23:00:00 13.7 16 Sur 23 Sudoeste 0 -- -- 75
2020-06-12 22:00:00 12.8 15 Sur 27 Sur 0 -- -- 99
2020-06-12 21:00:00 14 18 Sur 32 Sur 0 -- -- 99
2020-06-12 20:00:00 14.7 21 Sur 32 Sur 0 -- -- 99
2020-06-12 19:00:00 17.1 20 Sur 36 Sur 0 -- -- 84
2020-06-12 18:00:00 16.3 13 Sur 30 Sur 0 -- -- 83
2020-06-12 17:00:00 18.3 16 Sur 30 Sudoeste 0 -- -- 66
2020-06-12 16:00:00 18.5 13 Sudoeste 31 Sudoeste 0 -- -- 63
2020-06-12 15:00:00 18.8 7 Sudoeste 33 Sudoeste 0 -- -- 65
2020-06-12 14:00:00 18.5 8 Sudoeste 27 Sudoeste 0 -- -- 67
2020-06-12 13:00:00 18.7 12 Oeste 33 Oeste 0 -- -- 62
2020-06-12 12:00:00 16.6 14 Oeste 45 Oeste 0 -- -- 64
2020-06-12 11:00:00 18.1 16 Oeste 51 Oeste 0 -- -- 64
2020-06-12 10:00:00 16.3 22 Oeste 54 Oeste 0 -- -- 76
2020-06-12 09:00:00 15.9 20 Oeste 53 Oeste 0 -- -- 75
2020-06-12 08:00:00 12.7 22 Sudoeste 38 Sudoeste 0 -- -- 99
2020-06-12 07:00:00 13 19 Sudoeste 41 Sudoeste 0 -- -- 99
2020-06-12 06:00:00 12.8 18 Sudoeste 37 Sudoeste 0.1 -- -- 99
2020-06-12 05:00:00 13.7 18 Sur 35 Sur 0 -- -- 99
2020-06-12 04:00:00 13.6 26 Sur 39 Sur 0 -- -- 99
2020-06-12 03:00:00 13.5 27 Sur 42 Sur 0 -- -- 99
2020-06-12 02:00:00 13 32 Sur 43 Sur 0 -- -- 99
2020-06-12 01:00:00 12.7 28 Sur 39 Sur 0 -- -- 99
2020-06-12 00:00:00 12.8 29 Sur 40 Sur 0 -- -- 99